createdAt,value
2018-06-15T00:00:08.351Z,83.90
2018-06-15T00:02:37.303Z,85.60
2018-06-15T00:05:06.327Z,84.60
2018-06-15T00:07:35.191Z,86.50
2018-06-15T00:10:04.258Z,88.80
2018-06-15T00:12:33.660Z,88.30
2018-06-15T00:15:02.618Z,87.80
2018-06-15T00:17:31.475Z,88.50
2018-06-15T00:20:00.395Z,90.10
2018-06-15T00:22:29.187Z,89.60
2018-06-15T00:24:58.039Z,89.20
2018-06-15T00:29:56.263Z,90.80
2018-06-15T00:32:25.126Z,90.80
2018-06-15T00:39:52.348Z,91.70
2018-06-15T00:42:21.271Z,91.80
2018-06-15T00:44:50.147Z,91.80
2018-06-15T00:47:19.011Z,92.10
2018-06-15T00:49:47.904Z,92.10
2018-06-15T00:52:16.749Z,92.30
2018-06-15T00:57:31.323Z,93.00
2018-06-15T01:00:00.286Z,92.90
2018-06-15T01:02:29.136Z,92.60
2018-06-15T01:04:58.038Z,92.80
2018-06-15T01:07:26.879Z,92.80
2018-06-15T01:09:55.810Z,91.30
2018-06-15T01:12:24.663Z,92.20
2018-06-15T01:14:53.515Z,91.00
2018-06-15T01:17:22.384Z,91.80
2018-06-15T01:19:51.264Z,91.50
2018-06-15T01:22:20.119Z,91.30
2018-06-15T01:24:48.990Z,92.10
2018-06-15T01:27:17.951Z,91.40
2018-06-15T01:29:47.095Z,91.80
2018-06-15T01:32:15.903Z,91.40
2018-06-15T01:37:13.483Z,91.80
2018-06-15T01:42:11.240Z,85.50
2018-06-15T01:44:40.083Z,88.20
2018-06-15T01:47:08.918Z,90.20
2018-06-15T01:49:37.861Z,90.40
2018-06-15T01:52:06.778Z,90.10
2018-06-15T01:54:35.647Z,87.80
2018-06-15T01:57:04.505Z,90.10
2018-06-15T02:02:02.187Z,88.90
2018-06-15T02:06:59.806Z,89.60
2018-06-15T02:09:28.676Z,89.90
2018-06-15T02:11:57.546Z,87.00
2018-06-15T02:14:26.396Z,86.90
2018-06-15T02:16:55.244Z,88.70
2018-06-15T02:19:24.123Z,88.60
2018-06-15T02:21:52.983Z,88.10
2018-06-15T02:24:21.899Z,86.70
2018-06-15T02:29:19.919Z,79.80
2018-06-15T02:31:48.847Z,82.20
2018-06-15T02:34:17.693Z,83.20
2018-06-15T02:36:46.560Z,80.70
2018-06-15T02:41:44.252Z,77.60
2018-06-15T02:44:13.099Z,77.00
2018-06-15T02:46:41.961Z,72.80
2018-06-15T02:49:10.811Z,76.20
2018-06-15T02:51:39.760Z,79.10
2018-06-15T02:54:08.630Z,78.40
2018-06-15T02:56:37.551Z,77.10
2018-06-15T02:59:07.415Z,72.40
2018-06-15T03:01:36.253Z,72.60
2018-06-15T03:04:05.104Z,71.40
2018-06-15T03:06:34.023Z,73.10
2018-06-15T03:09:04.431Z,78.30
2018-06-15T03:11:33.275Z,77.70
2018-06-15T03:16:30.883Z,73.70
2018-06-15T03:18:59.768Z,74.50
2018-06-15T03:21:28.592Z,75.60
2018-06-15T03:23:57.435Z,72.90
2018-06-15T03:26:26.262Z,74.30
2018-06-15T03:28:55.116Z,79.00
2018-06-15T03:31:24.027Z,75.80
2018-06-15T03:33:52.851Z,75.90
2018-06-15T03:36:21.698Z,72.40
2018-06-15T03:38:50.579Z,72.90
2018-06-15T03:46:19.960Z,69.60
2018-06-15T03:48:48.925Z,74.70
2018-06-15T03:51:17.749Z,73.20
2018-06-15T03:56:15.387Z,71.30
2018-06-15T03:58:44.265Z,74.00
2018-06-15T04:01:13.829Z,74.80
2018-06-15T04:03:42.819Z,78.10
2018-06-15T04:06:11.709Z,81.50
2018-06-15T04:08:40.658Z,83.50
2018-06-15T04:11:09.487Z,83.30
2018-06-15T04:13:38.379Z,83.80
2018-06-15T04:16:07.458Z,84.30
2018-06-15T04:18:36.426Z,84.50
2018-06-15T04:21:05.816Z,84.10
2018-06-15T04:23:34.683Z,84.30
2018-06-15T04:28:32.291Z,82.20
2018-06-15T04:31:01.290Z,84.30
2018-06-15T04:33:30.166Z,82.20
2018-06-15T04:35:59.023Z,83.20
2018-06-15T04:38:28.107Z,84.20
2018-06-15T04:40:56.948Z,76.50
2018-06-15T04:43:25.846Z,77.10
2018-06-15T04:45:54.706Z,79.30
2018-06-15T04:50:52.360Z,82.40
2018-06-15T04:53:21.250Z,84.90
2018-06-15T04:55:50.463Z,86.00
2018-06-15T04:58:19.443Z,86.40
2018-06-15T05:03:17.213Z,82.40
2018-06-15T05:05:46.033Z,83.50
2018-06-15T05:10:44.191Z,80.70
2018-06-15T05:13:13.075Z,83.80
2018-06-15T05:15:41.940Z,82.40
2018-06-15T05:18:10.775Z,80.00
2018-06-15T05:20:39.630Z,79.00
2018-06-15T05:23:08.897Z,80.00
2018-06-15T05:25:38.163Z,78.50
2018-06-15T05:28:07.336Z,76.80
2018-06-15T05:30:36.268Z,77.60
2018-06-15T05:33:05.690Z,81.40
2018-06-15T05:35:34.825Z,82.10
2018-06-15T05:38:04.017Z,80.30
2018-06-15T05:40:32.907Z,80.80
2018-06-15T05:43:01.920Z,81.50
2018-06-15T05:45:31.624Z,82.90
2018-06-15T05:48:00.563Z,83.20
2018-06-15T05:50:29.503Z,83.80
2018-06-15T05:52:58.339Z,81.70
2018-06-15T05:57:56.535Z,83.50
2018-06-15T06:00:25.468Z,83.90
2018-06-15T06:02:54.572Z,83.90
2018-06-15T06:05:23.436Z,86.50
2018-06-15T06:07:52.619Z,85.70
2018-06-15T06:10:21.952Z,84.70
2018-06-15T06:12:51.310Z,86.20
2018-06-15T06:15:20.212Z,85.40
2018-06-15T06:20:18.588Z,81.90
2018-06-15T06:22:47.463Z,82.20
2018-06-15T06:25:16.332Z,81.00
2018-06-15T06:27:45.198Z,76.90
2018-06-15T06:30:14.105Z,77.90
2018-06-15T06:32:43.076Z,77.00
2018-06-15T06:35:11.851Z,76.60
2018-06-15T06:37:40.734Z,79.20
2018-06-15T06:40:09.622Z,75.50
2018-06-15T06:42:38.511Z,75.80
2018-06-15T06:45:07.403Z,78.30
2018-06-15T06:50:05.656Z,75.70
2018-06-15T06:52:34.641Z,78.40
2018-06-15T06:55:03.668Z,74.10
2018-06-15T06:57:32.766Z,75.40
2018-06-15T07:00:01.660Z,76.00
2018-06-15T07:04:59.320Z,76.20
2018-06-15T07:07:28.176Z,75.90
2018-06-15T07:09:57.028Z,68.10
2018-06-15T07:14:55.976Z,70.80
2018-06-15T07:17:24.802Z,72.90
2018-06-15T07:22:22.407Z,72.00
2018-06-15T07:24:51.258Z,69.80
2018-06-15T07:27:20.569Z,70.60
2018-06-15T07:29:49.400Z,67.00
2018-06-15T07:32:18.236Z,65.90
2018-06-15T07:34:47.083Z,66.40
2018-06-15T07:37:15.939Z,69.70
2018-06-15T07:42:13.528Z,66.40
2018-06-15T07:44:42.360Z,66.20
2018-06-15T07:47:11.923Z,68.70
2018-06-15T07:49:40.803Z,69.00
2018-06-15T07:54:38.385Z,66.70
2018-06-15T07:59:36.015Z,69.90
2018-06-15T08:02:04.875Z,66.70
2018-06-15T08:04:33.732Z,66.80
2018-06-15T08:07:02.568Z,69.90
2018-06-15T08:09:31.431Z,67.90
2018-06-15T08:12:00.292Z,69.30
2018-06-15T08:14:29.132Z,70.20
2018-06-15T08:16:57.987Z,72.00
2018-06-15T08:21:55.616Z,72.30
2018-06-15T08:24:24.554Z,70.30
2018-06-15T08:26:53.432Z,70.40
2018-06-15T08:29:22.293Z,70.10
2018-06-15T08:31:51.170Z,67.00
2018-06-15T08:34:19.999Z,66.40
2018-06-15T08:39:17.620Z,71.10
2018-06-15T08:41:46.471Z,68.90
2018-06-15T08:46:44.155Z,64.20
2018-06-15T08:49:13.032Z,64.80
2018-06-15T08:51:41.903Z,65.10
2018-06-15T08:54:10.738Z,63.20
2018-06-15T08:56:39.604Z,65.00
2018-06-15T08:59:08.477Z,64.70
2018-06-15T09:01:37.306Z,66.80
2018-06-15T09:06:34.904Z,65.40
2018-06-15T09:09:06.277Z,67.30
2018-06-15T09:11:35.167Z,66.60
2018-06-15T09:14:04.051Z,66.60
2018-06-15T09:16:32.882Z,67.20
2018-06-15T09:19:01.919Z,66.10
2018-06-15T09:23:59.492Z,63.80
2018-06-15T09:26:28.356Z,60.00
2018-06-15T09:31:26.071Z,61.40
2018-06-15T09:33:55.165Z,60.80
2018-06-15T09:36:24.107Z,63.40
2018-06-15T09:38:53.070Z,60.80
2018-06-15T09:41:21.963Z,60.90
2018-06-15T09:43:50.794Z,59.10
2018-06-15T09:46:19.707Z,60.70
2018-06-15T09:48:48.717Z,60.80
2018-06-15T09:51:17.550Z,62.00
2018-06-15T09:53:47.333Z,61.60
2018-06-15T09:56:16.169Z,63.50
2018-06-15T09:58:45.579Z,61.10
2018-06-15T10:01:14.765Z,61.90
2018-06-15T10:03:43.679Z,60.10
2018-06-15T10:06:12.574Z,62.70
2018-06-15T10:08:41.948Z,60.80
2018-06-15T10:11:11.095Z,59.10
2018-06-15T10:13:40.397Z,57.40
2018-06-15T10:16:09.703Z,60.40
2018-06-15T10:23:37.268Z,59.00
2018-06-15T10:26:06.463Z,56.50
2018-06-15T10:28:37.555Z,56.80
2018-06-15T10:31:06.883Z,59.00
2018-06-15T10:33:36.108Z,58.50
2018-06-15T10:36:05.297Z,58.60
2018-06-15T10:38:34.560Z,59.60
2018-06-15T10:41:03.412Z,61.60
2018-06-15T10:43:32.428Z,62.60
2018-06-15T10:46:01.382Z,62.00
2018-06-15T10:48:30.500Z,63.80
2018-06-15T10:50:59.367Z,62.40
2018-06-15T10:55:57.488Z,61.70
2018-06-15T10:58:28.428Z,61.30
2018-06-15T11:00:57.648Z,60.10
2018-06-15T11:03:26.515Z,63.20
2018-06-15T11:05:55.680Z,63.40
2018-06-15T11:08:24.786Z,64.10
2018-06-15T11:10:53.706Z,63.10
2018-06-15T11:13:22.641Z,65.80
2018-06-15T11:15:51.487Z,64.20
2018-06-15T11:18:21.125Z,66.40
2018-06-15T11:20:50.028Z,64.60
2018-06-15T11:23:18.924Z,65.10
2018-06-15T11:25:47.843Z,65.50
2018-06-15T11:28:16.429Z,65.60
2018-06-15T11:30:45.418Z,64.80
2018-06-15T11:33:14.296Z,65.60
2018-06-15T11:35:43.153Z,66.60
2018-06-15T11:38:11.976Z,67.10
2018-06-15T11:40:40.836Z,68.70
2018-06-15T11:43:09.675Z,67.60
2018-06-15T11:45:38.560Z,67.90
2018-06-15T11:48:07.496Z,65.60
2018-06-15T11:50:36.428Z,65.30
2018-06-15T11:55:34.027Z,67.40
2018-06-15T11:58:02.882Z,62.10
2018-06-15T12:00:31.923Z,62.20
2018-06-15T12:03:00.803Z,63.90
2018-06-15T12:05:29.643Z,63.50
2018-06-15T12:07:58.554Z,64.50
2018-06-15T12:10:27.476Z,66.40
2018-06-15T12:12:56.316Z,63.90
2018-06-15T12:15:25.192Z,63.00
2018-06-15T12:17:54.162Z,64.40
2018-06-15T12:20:23.000Z,65.80
2018-06-15T12:22:51.860Z,65.40
2018-06-15T12:25:20.712Z,66.20
2018-06-15T12:30:20.573Z,66.10
2018-06-15T12:32:49.709Z,66.70
2018-06-15T12:35:18.672Z,64.10
2018-06-15T12:37:47.524Z,63.00
2018-06-15T12:40:16.384Z,63.30
2018-06-15T12:42:45.304Z,64.00
2018-06-15T12:45:14.518Z,64.30
2018-06-15T12:47:43.704Z,63.80
2018-06-15T12:50:12.547Z,63.40
2018-06-15T12:55:10.261Z,62.00
2018-06-15T12:57:39.103Z,64.30
2018-06-15T13:00:08.400Z,64.40
2018-06-15T13:02:37.676Z,63.60
2018-06-15T13:05:06.552Z,62.00
2018-06-15T13:07:35.376Z,62.20
2018-06-15T13:10:04.678Z,61.30
2018-06-15T13:12:33.547Z,61.50
2018-06-15T13:15:02.504Z,62.70
2018-06-15T13:17:31.611Z,62.20
2018-06-15T13:20:00.516Z,62.20
2018-06-15T13:22:29.366Z,62.20
2018-06-15T13:24:58.275Z,62.30
2018-06-15T13:27:27.671Z,60.30
2018-06-15T13:34:55.149Z,62.20
2018-06-15T13:37:24.547Z,65.50
2018-06-15T13:39:53.857Z,66.40
2018-06-15T13:42:23.717Z,64.30
2018-06-15T13:44:53.268Z,63.00
2018-06-15T13:47:22.155Z,64.50
2018-06-15T13:49:51.205Z,63.00
2018-06-15T13:52:21.015Z,62.30
2018-06-15T13:57:19.942Z,62.40
2018-06-15T13:59:49.276Z,61.60
2018-06-15T14:02:18.167Z,62.30
2018-06-15T14:04:47.023Z,63.30
2018-06-15T14:07:15.855Z,66.40
2018-06-15T14:09:44.768Z,65.50
2018-06-15T14:12:13.663Z,66.10
2018-06-15T14:14:42.491Z,64.80
2018-06-15T14:17:11.324Z,65.00
2018-06-15T14:19:40.229Z,63.50
2018-06-15T14:22:09.892Z,66.60
2018-06-15T14:24:39.015Z,64.30
2018-06-15T14:27:08.135Z,65.90
2018-06-15T14:29:37.127Z,67.20
2018-06-15T14:32:05.971Z,64.80
2018-06-15T14:34:34.887Z,67.90
2018-06-15T14:37:04.296Z,66.00
2018-06-15T14:42:02.364Z,66.40
2018-06-15T14:44:31.203Z,66.50
2018-06-15T14:47:00.587Z,66.60
2018-06-15T14:51:58.895Z,61.20
2018-06-15T14:54:28.129Z,63.00
2018-06-15T14:56:57.336Z,66.60
2018-06-15T14:59:26.640Z,63.80
2018-06-15T15:01:55.583Z,65.50
2018-06-15T15:04:24.968Z,64.90
2018-06-15T15:06:54.212Z,63.40
2018-06-15T15:09:23.335Z,64.10
2018-06-15T15:11:52.304Z,64.90
2018-06-15T15:14:21.631Z,66.20
2018-06-15T15:16:51.055Z,65.30
2018-06-15T15:19:20.293Z,66.50
2018-06-15T15:21:49.168Z,66.40
2018-06-15T15:24:18.789Z,65.10
2018-06-15T15:26:48.225Z,64.20
2018-06-15T15:29:17.503Z,63.50
2018-06-15T15:34:15.892Z,58.70
2018-06-15T15:36:45.462Z,62.30
2018-06-15T15:39:15.763Z,63.20
2018-06-15T15:41:44.790Z,61.70
2018-06-15T15:44:13.915Z,65.00
2018-06-15T15:46:42.905Z,61.30
2018-06-15T15:49:12.332Z,60.20
2018-06-15T15:51:41.227Z,56.00
2018-06-15T15:54:10.055Z,58.90
2018-06-15T15:56:39.432Z,58.80
2018-06-15T15:59:08.439Z,54.30
2018-06-15T16:01:37.913Z,53.70
2018-06-15T16:04:06.802Z,57.80
2018-06-15T16:06:36.247Z,56.80
2018-06-15T16:09:07.224Z,55.20
2018-06-15T16:14:08.515Z,54.30
2018-06-15T16:16:37.403Z,54.30
2018-06-15T16:19:07.043Z,55.80
2018-06-15T16:21:36.273Z,57.70
2018-06-15T16:24:05.218Z,54.10
2018-06-15T16:26:34.777Z,53.40
2018-06-15T16:29:04.005Z,52.00
2018-06-15T16:31:33.065Z,50.40
2018-06-15T16:34:01.991Z,51.30
2018-06-15T16:39:00.559Z,54.10
2018-06-15T16:41:29.986Z,56.40
2018-06-15T16:43:59.019Z,57.60
2018-06-15T16:46:27.794Z,57.50
2018-06-15T16:48:56.684Z,56.80
2018-06-15T16:51:25.539Z,57.70
2018-06-15T16:53:54.406Z,57.40
2018-06-15T16:56:23.346Z,56.50
2018-06-15T16:58:52.308Z,56.90
2018-06-15T17:01:21.124Z,55.10
2018-06-15T17:03:50.439Z,55.30
2018-06-15T17:06:19.404Z,55.40
2018-06-15T17:08:49.042Z,55.30
2018-06-15T17:11:18.344Z,55.60
2018-06-15T17:13:47.300Z,56.40
2018-06-15T17:16:16.144Z,56.30
2018-06-15T17:18:45.528Z,56.20
2018-06-15T17:21:14.472Z,55.50
2018-06-15T17:23:43.791Z,56.80
2018-06-15T17:26:12.867Z,55.40
2018-06-15T17:28:42.553Z,57.40
2018-06-15T17:31:11.679Z,56.00
2018-06-15T17:33:41.072Z,56.40
2018-06-15T17:36:09.996Z,57.70
2018-06-15T17:38:39.548Z,57.40
2018-06-15T17:41:08.427Z,57.80
2018-06-15T17:43:37.756Z,57.60
2018-06-15T17:46:06.951Z,58.70
2018-06-15T17:48:36.289Z,57.50
2018-06-15T17:51:05.285Z,56.20
2018-06-15T17:53:34.080Z,57.60
2018-06-15T17:58:32.717Z,59.20
2018-06-15T18:01:01.721Z,59.80
2018-06-15T18:03:30.784Z,60.30
2018-06-15T18:06:00.283Z,59.50
2018-06-15T18:08:29.280Z,60.30
2018-06-15T18:10:58.111Z,60.00
2018-06-15T18:13:26.970Z,62.00
2018-06-15T18:15:56.224Z,63.40
2018-06-15T18:18:25.466Z,62.90
2018-06-15T18:20:54.296Z,62.30
2018-06-15T18:23:23.640Z,61.60
2018-06-15T18:25:53.199Z,60.60
2018-06-15T18:28:22.396Z,60.70
2018-06-15T18:30:51.931Z,64.50
2018-06-15T18:33:21.160Z,63.50
2018-06-15T18:35:50.079Z,63.80
2018-06-15T18:38:19.477Z,64.80
2018-06-15T18:40:48.836Z,64.00
2018-06-15T18:43:18.930Z,64.60
2018-06-15T18:45:48.420Z,65.30
2018-06-15T18:50:46.372Z,68.10
2018-06-15T18:53:15.711Z,69.70
2018-06-15T18:55:44.988Z,71.70
2018-06-15T18:58:13.910Z,73.60
2018-06-15T19:00:42.944Z,75.20
2018-06-15T19:03:11.867Z,75.70
2018-06-15T19:05:40.737Z,75.70
2018-06-15T19:08:09.595Z,75.80
2018-06-15T19:10:38.528Z,76.50
2018-06-15T19:13:08.272Z,76.90
2018-06-15T19:15:37.468Z,76.90
2018-06-15T19:18:06.607Z,76.10
2018-06-15T19:20:35.876Z,77.40
2018-06-15T19:23:04.947Z,77.80
2018-06-15T19:25:34.139Z,77.60
2018-06-15T19:28:03.563Z,79.50
2018-06-15T19:30:32.668Z,79.20
2018-06-15T19:33:02.632Z,78.40
2018-06-15T19:35:31.600Z,77.90
2018-06-15T19:38:00.410Z,78.00
2018-06-15T19:40:29.865Z,80.00
2018-06-15T19:42:58.767Z,78.40
2018-06-15T19:45:27.686Z,79.30
2018-06-15T19:47:56.967Z,80.40
2018-06-15T19:50:26.444Z,81.40
2018-06-15T19:52:55.565Z,79.60
2018-06-15T19:55:25.216Z,80.50
2018-06-15T19:57:54.311Z,82.20
2018-06-15T20:00:23.300Z,82.90
2018-06-15T20:02:52.535Z,82.40
2018-06-15T20:05:22.424Z,82.70
2018-06-15T20:07:51.782Z,82.90
2018-06-15T20:10:21.333Z,82.30
2018-06-15T20:12:50.744Z,82.20
2018-06-15T20:15:19.659Z,83.40
2018-06-15T20:17:48.956Z,83.20
2018-06-15T20:20:18.330Z,83.50
2018-06-15T20:25:16.096Z,82.20
2018-06-15T20:27:44.977Z,83.40
2018-06-15T20:30:14.702Z,82.10
2018-06-15T20:35:13.776Z,83.10
2018-06-15T20:37:42.956Z,84.00
2018-06-15T20:40:12.249Z,82.70
2018-06-15T20:42:42.087Z,83.70
2018-06-15T20:45:11.167Z,84.80
2018-06-15T20:47:40.067Z,84.80
2018-06-15T20:50:08.979Z,85.40
2018-06-15T20:52:37.839Z,84.70
2018-06-15T20:55:06.743Z,86.50
2018-06-15T20:57:35.582Z,84.80
2018-06-15T21:00:05.140Z,85.70
2018-06-15T21:05:02.702Z,84.80
2018-06-15T21:10:00.435Z,86.00
2018-06-15T21:12:29.267Z,85.60
2018-06-15T21:14:58.180Z,85.10
2018-06-15T21:17:27.035Z,86.10
2018-06-15T21:19:56.059Z,86.50
2018-06-15T21:22:24.931Z,85.20
2018-06-15T21:24:53.779Z,85.90
2018-06-15T21:27:22.685Z,84.90
2018-06-15T21:29:52.399Z,85.90
2018-06-15T21:32:21.268Z,84.50
2018-06-15T21:34:50.150Z,85.90
2018-06-15T21:37:19.020Z,85.90
2018-06-15T21:39:47.945Z,86.70
2018-06-15T21:42:16.767Z,85.90
2018-06-15T21:44:45.593Z,87.00
2018-06-15T21:47:14.420Z,85.60
2018-06-15T21:49:43.250Z,87.40
2018-06-15T21:52:12.123Z,87.40
2018-06-15T21:54:40.969Z,87.10
2018-06-15T21:57:09.822Z,87.70
2018-06-15T21:59:38.757Z,87.80
2018-06-15T22:02:07.642Z,87.00
2018-06-15T22:04:36.537Z,87.20
2018-06-15T22:07:05.376Z,85.60
2018-06-15T22:09:34.289Z,88.30
2018-06-15T22:14:31.906Z,87.30
2018-06-15T22:17:00.751Z,88.10
2018-06-15T22:21:58.422Z,88.20
2018-06-15T22:26:56.240Z,87.30
2018-06-15T22:29:25.137Z,87.30
2018-06-15T22:31:53.954Z,88.50
2018-06-15T22:34:22.786Z,88.40
2018-06-15T22:39:20.392Z,88.70
2018-06-15T22:41:49.232Z,88.50
2018-06-15T22:44:18.099Z,88.40
2018-06-15T22:46:46.959Z,88.00
2018-06-15T22:51:45.847Z,88.30
2018-06-15T22:56:43.370Z,90.00
2018-06-15T22:59:12.287Z,88.20
2018-06-15T23:01:41.132Z,88.30
2018-06-15T23:04:10.068Z,87.80
2018-06-15T23:06:39.176Z,88.80
2018-06-15T23:09:10.179Z,89.80
2018-06-15T23:11:39.588Z,89.10
2018-06-15T23:14:08.998Z,89.70
2018-06-15T23:16:37.918Z,88.90
2018-06-15T23:19:06.990Z,88.60
2018-06-15T23:21:36.080Z,88.30
2018-06-15T23:24:05.038Z,88.60
2018-06-15T23:26:33.991Z,88.10
2018-06-15T23:29:02.945Z,88.20
2018-06-15T23:31:31.837Z,88.20
2018-06-15T23:34:01.022Z,87.80
2018-06-15T23:36:29.847Z,88.50
2018-06-15T23:38:58.788Z,89.00
2018-06-15T23:41:27.790Z,88.60
2018-06-15T23:43:56.771Z,88.90
2018-06-15T23:46:25.599Z,88.10
2018-06-15T23:48:54.519Z,89.60
2018-06-15T23:53:52.131Z,90.10
2018-06-15T23:56:21.020Z,90.00
2018-06-15T23:58:49.990Z,88.80
